Terminal Aerodrome Forecast
Issued by NWS

Home | Current Version | Previous Version | Text Only | Print | Product List | Glossary On
Versions: 1 2 3 4 5 6 7 8 9 10 11 12 13 14 15 16 17 18 19
000
FTUS43 KTOP 202200 AAA
TAFMHK
TAF AMD
KMHK 202235Z 2023/2118 18012KT P6SM VCSH SCT070 BKN140
     FM210600 23006KT P6SM -SHRA VCTS BKN040CB
     FM211400 33007KT P6SM -SHRA SCT020 BKN035=

USA.gov is the U.S. government's official web portal to all federal, state and local government web resources and services.